sensor_id;sensor_type;location;lat;lon;timestamp;temperature;humidity
40289;DHT22;28991;52.028;5.526;2023-05-14T00:00:41;21.20;56.10
40289;DHT22;28991;52.028;5.526;2023-05-14T00:03:07;21.30;56.20
40289;DHT22;28991;52.028;5.526;2023-05-14T00:05:32;21.30;56.30
40289;DHT22;28991;52.028;5.526;2023-05-14T00:07:58;21.30;56.30
40289;DHT22;28991;52.028;5.526;2023-05-14T00:10:23;21.30;56.30
40289;DHT22;28991;52.028;5.526;2023-05-14T00:12:50;21.20;56.30
40289;DHT22;28991;52.028;5.526;2023-05-14T00:15:16;21.20;56.30
40289;DHT22;28991;52.028;5.526;2023-05-14T00:17:41;21.20;56.30
40289;DHT22;28991;52.028;5.526;2023-05-14T00:20:07;21.20;56.40
40289;DHT22;28991;52.028;5.526;2023-05-14T00:22:34;21.30;56.40
40289;DHT22;28991;52.028;5.526;2023-05-14T00:25:01;21.20;56.40
40289;DHT22;28991;52.028;5.526;2023-05-14T00:27:27;21.20;56.40
40289;DHT22;28991;52.028;5.526;2023-05-14T00:29:52;21.20;56.40
40289;DHT22;28991;52.028;5.526;2023-05-14T00:32:18;21.20;56.40
40289;DHT22;28991;52.028;5.526;2023-05-14T00:34:44;21.20;56.50
40289;DHT22;28991;52.028;5.526;2023-05-14T00:37:09;21.20;56.60
40289;DHT22;28991;52.028;5.526;2023-05-14T00:39:35;21.30;56.50
40289;DHT22;28991;52.028;5.526;2023-05-14T00:42:00;21.10;56.50
40289;DHT22;28991;52.028;5.526;2023-05-14T00:44:26;21.10;56.50
40289;DHT22;28991;52.028;5.526;2023-05-14T00:46:52;21.40;56.70
40289;DHT22;28991;52.028;5.526;2023-05-14T00:49:18;21.20;56.60
40289;DHT22;28991;52.028;5.526;2023-05-14T00:51:43;21.20;56.60
40289;DHT22;28991;52.028;5.526;2023-05-14T00:54:14;21.10;56.60
40289;DHT22;28991;52.028;5.526;2023-05-14T00:56:44;21.70;56.90
40289;DHT22;28991;52.028;5.526;2023-05-14T00:59:10;21.10;56.60
40289;DHT22;28991;52.028;5.526;2023-05-14T01:01:36;21.10;56.60
40289;DHT22;28991;52.028;5.526;2023-05-14T01:04:02;21.10;56.60
40289;DHT22;28991;52.028;5.526;2023-05-14T01:12:37;21.10;56.80
40289;DHT22;28991;52.028;5.526;2023-05-14T01:15:14;21.10;56.70
40289;DHT22;28991;52.028;5.526;2023-05-14T01:17:45;21.10;56.60
40289;DHT22;28991;52.028;5.526;2023-05-14T01:20:13;21.20;56.80
40289;DHT22;28991;52.028;5.526;2023-05-14T01:22:38;21.10;56.70
40289;DHT22;28991;52.028;5.526;2023-05-14T01:25:05;21.10;56.70
40289;DHT22;28991;52.028;5.526;2023-05-14T01:27:40;21.10;56.70
40289;DHT22;28991;52.028;5.526;2023-05-14T01:32:38;21.20;56.80
40289;DHT22;28991;52.028;5.526;2023-05-14T01:35:05;21.10;56.70
40289;DHT22;28991;52.028;5.526;2023-05-14T01:37:31;21.10;56.80
40289;DHT22;28991;52.028;5.526;2023-05-14T01:39:58;21.00;56.70
40289;DHT22;28991;52.028;5.526;2023-05-14T01:42:24;21.10;56.70
40289;DHT22;28991;52.028;5.526;2023-05-14T01:44:50;21.40;57.00
40289;DHT22;28991;52.028;5.526;2023-05-14T01:47:15;21.10;56.80
40289;DHT22;28991;52.028;5.526;2023-05-14T01:49:41;21.10;56.80
40289;DHT22;28991;52.028;5.526;2023-05-14T01:52:07;21.00;56.70
40289;DHT22;28991;52.028;5.526;2023-05-14T01:54:33;20.90;56.70
40289;DHT22;28991;52.028;5.526;2023-05-14T01:56:58;21.00;56.80
40289;DHT22;28991;52.028;5.526;2023-05-14T01:59:24;21.00;56.80
40289;DHT22;28991;52.028;5.526;2023-05-14T02:01:49;21.00;56.80
40289;DHT22;28991;52.028;5.526;2023-05-14T02:04:15;21.00;56.80
40289;DHT22;28991;52.028;5.526;2023-05-14T02:06:40;21.00;56.80
40289;DHT22;28991;52.028;5.526;2023-05-14T02:09:06;21.30;57.00
40289;DHT22;28991;52.028;5.526;2023-05-14T02:11:32;21.00;56.90
40289;DHT22;28991;52.028;5.526;2023-05-14T02:13:57;21.00;56.80
40289;DHT22;28991;52.028;5.526;2023-05-14T02:16:23;21.00;56.90
40289;DHT22;28991;52.028;5.526;2023-05-14T02:18:48;21.00;56.90
40289;DHT22;28991;52.028;5.526;2023-05-14T02:21:14;21.00;56.90
40289;DHT22;28991;52.028;5.526;2023-05-14T02:23:39;20.90;56.90
40289;DHT22;28991;52.028;5.526;2023-05-14T02:26:05;21.00;56.90
40289;DHT22;28991;52.028;5.526;2023-05-14T02:28:30;21.00;56.90
40289;DHT22;28991;52.028;5.526;2023-05-14T02:30:59;21.00;56.90
40289;DHT22;28991;52.028;5.526;2023-05-14T02:33:26;21.00;56.90
40289;DHT22;28991;52.028;5.526;2023-05-14T02:35:51;21.10;57.00
40289;DHT22;28991;52.028;5.526;2023-05-14T02:38:17;21.00;56.90
40289;DHT22;28991;52.028;5.526;2023-05-14T02:40:43;21.00;56.90
40289;DHT22;28991;52.028;5.526;2023-05-14T02:43:08;21.00;56.90
40289;DHT22;28991;52.028;5.526;2023-05-14T02:45:34;21.00;57.00
40289;DHT22;28991;52.028;5.526;2023-05-14T02:48:00;20.90;56.90
40289;DHT22;28991;52.028;5.526;2023-05-14T02:50:25;20.90;56.90
40289;DHT22;28991;52.028;5.526;2023-05-14T02:52:51;20.90;57.00
40289;DHT22;28991;52.028;5.526;2023-05-14T02:55:17;21.50;57.30
40289;DHT22;28991;52.028;5.526;2023-05-14T02:57:42;20.90;57.00
40289;DHT22;28991;52.028;5.526;2023-05-14T03:00:08;20.90;56.90
40289;DHT22;28991;52.028;5.526;2023-05-14T03:02:34;20.90;57.00
40289;DHT22;28991;52.028;5.526;2023-05-14T03:05:00;20.90;57.00
40289;DHT22;28991;52.028;5.526;2023-05-14T03:07:26;20.90;57.00
40289;DHT22;28991;52.028;5.526;2023-05-14T03:09:51;21.10;57.70
40289;DHT22;28991;52.028;5.526;2023-05-14T03:12:17;20.90;57.00
40289;DHT22;28991;52.028;5.526;2023-05-14T03:14:42;20.90;57.00
40289;DHT22;28991;52.028;5.526;2023-05-14T03:17:08;21.00;57.10
40289;DHT22;28991;52.028;5.526;2023-05-14T03:19:34;20.90;57.00
40289;DHT22;28991;52.028;5.526;2023-05-14T03:22:00;20.90;57.00
40289;DHT22;28991;52.028;5.526;2023-05-14T03:24:25;20.90;57.00
40289;DHT22;28991;52.028;5.526;2023-05-14T03:26:51;20.90;57.10
40289;DHT22;28991;52.028;5.526;2023-05-14T03:29:17;21.10;57.20
40289;DHT22;28991;52.028;5.526;2023-05-14T03:31:43;20.80;57.00
40289;DHT22;28991;52.028;5.526;2023-05-14T03:34:09;20.80;57.00
40289;DHT22;28991;52.028;5.526;2023-05-14T03:36:34;21.70;57.50
40289;DHT22;28991;52.028;5.526;2023-05-14T03:39:02;20.80;57.00
40289;DHT22;28991;52.028;5.526;2023-05-14T03:41:27;20.90;57.10
40289;DHT22;28991;52.028;5.526;2023-05-14T03:43:53;20.90;57.10
40289;DHT22;28991;52.028;5.526;2023-05-14T03:46:18;20.90;57.10
40289;DHT22;28991;52.028;5.526;2023-05-14T03:48:44;20.80;57.00
40289;DHT22;28991;52.028;5.526;2023-05-14T03:51:09;21.40;57.40
40289;DHT22;28991;52.028;5.526;2023-05-14T03:53:35;21.20;57.30
40289;DHT22;28991;52.028;5.526;2023-05-14T03:56:01;20.90;57.10
40289;DHT22;28991;52.028;5.526;2023-05-14T03:58:26;20.90;57.10
40289;DHT22;28991;52.028;5.526;2023-05-14T04:00:52;20.80;57.00
40289;DHT22;28991;52.028;5.526;2023-05-14T04:03:17;20.80;57.00
40289;DHT22;28991;52.028;5.526;2023-05-14T04:05:43;20.90;57.10
40289;DHT22;28991;52.028;5.526;2023-05-14T04:08:09;20.90;57.10
40289;DHT22;28991;52.028;5.526;2023-05-14T04:10:34;20.90;57.00
40289;DHT22;28991;52.028;5.526;2023-05-14T04:13:00;20.80;57.00
40289;DHT22;28991;52.028;5.526;2023-05-14T04:15:26;20.90;57.00
40289;DHT22;28991;52.028;5.526;2023-05-14T04:17:51;20.80;56.90
40289;DHT22;28991;52.028;5.526;2023-05-14T04:20:17;20.70;56.90
40289;DHT22;28991;52.028;5.526;2023-05-14T04:22:42;20.90;57.00
40289;DHT22;28991;52.028;5.526;2023-05-14T04:25:08;20.90;56.90
40289;DHT22;28991;52.028;5.526;2023-05-14T04:27:34;20.90;56.90
40289;DHT22;28991;52.028;5.526;2023-05-14T04:29:59;20.90;56.90
40289;DHT22;28991;52.028;5.526;2023-05-14T04:32:25;20.90;56.80
40289;DHT22;28991;52.028;5.526;2023-05-14T04:34:51;21.00;56.80
40289;DHT22;28991;52.028;5.526;2023-05-14T04:37:16;21.00;56.80
40289;DHT22;28991;52.028;5.526;2023-05-14T04:39:42;21.00;56.70
40289;DHT22;28991;52.028;5.526;2023-05-14T04:42:07;21.10;57.20
40289;DHT22;28991;52.028;5.526;2023-05-14T04:44:34;21.60;56.80
40289;DHT22;28991;52.028;5.526;2023-05-14T04:47:00;21.20;56.40
40289;DHT22;28991;52.028;5.526;2023-05-14T04:49:26;21.30;56.30
40289;DHT22;28991;52.028;5.526;2023-05-14T04:51:52;21.30;56.10
40289;DHT22;28991;52.028;5.526;2023-05-14T04:54:17;21.40;56.10
40289;DHT22;28991;52.028;5.526;2023-05-14T04:56:43;21.40;56.00
40289;DHT22;28991;52.028;5.526;2023-05-14T04:59:08;21.40;56.00
40289;DHT22;28991;52.028;5.526;2023-05-14T05:01:34;21.40;55.90
40289;DHT22;28991;52.028;5.526;2023-05-14T05:04:00;21.50;56.00
40289;DHT22;28991;52.028;5.526;2023-05-14T05:06:26;21.40;55.90
40289;DHT22;28991;52.028;5.526;2023-05-14T05:08:52;21.50;55.90
40289;DHT22;28991;52.028;5.526;2023-05-14T05:11:17;21.60;55.90
40289;DHT22;28991;52.028;5.526;2023-05-14T05:13:43;22.00;55.80
40289;DHT22;28991;52.028;5.526;2023-05-14T05:16:08;21.80;55.30
40289;DHT22;28991;52.028;5.526;2023-05-14T05:18:34;22.00;55.00
40289;DHT22;28991;52.028;5.526;2023-05-14T05:20:59;22.00;54.70
40289;DHT22;28991;52.028;5.526;2023-05-14T05:23:25;22.00;54.60
40289;DHT22;28991;52.028;5.526;2023-05-14T05:25:54;22.00;54.60
40289;DHT22;28991;52.028;5.526;2023-05-14T05:28:19;22.10;54.50
40289;DHT22;28991;52.028;5.526;2023-05-14T05:30:45;22.30;54.20
40289;DHT22;28991;52.028;5.526;2023-05-14T05:33:11;22.70;53.90
40289;DHT22;28991;52.028;5.526;2023-05-14T05:35:37;22.60;53.30
40289;DHT22;28991;52.028;5.526;2023-05-14T05:38:02;22.80;52.90
40289;DHT22;28991;52.028;5.526;2023-05-14T05:40:28;23.00;52.50
40289;DHT22;28991;52.028;5.526;2023-05-14T05:42:53;23.10;52.20
40289;DHT22;28991;52.028;5.526;2023-05-14T05:45:19;23.10;52.00
40289;DHT22;28991;52.028;5.526;2023-05-14T05:47:44;23.10;52.10
40289;DHT22;28991;52.028;5.526;2023-05-14T05:50:11;22.90;52.20
40289;DHT22;28991;52.028;5.526;2023-05-14T05:52:37;22.80;52.50
40289;DHT22;28991;52.028;5.526;2023-05-14T05:55:03;22.80;52.90
40289;DHT22;28991;52.028;5.526;2023-05-14T05:57:29;22.60;53.10
40289;DHT22;28991;52.028;5.526;2023-05-14T05:59:54;22.50;53.40
40289;DHT22;28991;52.028;5.526;2023-05-14T06:02:20;22.50;53.60
40289;DHT22;28991;52.028;5.526;2023-05-14T06:04:45;22.40;53.70
40289;DHT22;28991;52.028;5.526;2023-05-14T06:07:11;22.40;53.70
40289;DHT22;28991;52.028;5.526;2023-05-14T06:09:37;22.50;53.50
40289;DHT22;28991;52.028;5.526;2023-05-14T06:12:03;22.70;53.00
40289;DHT22;28991;52.028;5.526;2023-05-14T06:14:28;23.00;52.40
40289;DHT22;28991;52.028;5.526;2023-05-14T06:16:54;23.70;52.00
40289;DHT22;28991;52.028;5.526;2023-05-14T06:19:19;23.50;51.20
40289;DHT22;28991;52.028;5.526;2023-05-14T06:21:45;23.70;50.90
40289;DHT22;28991;52.028;5.526;2023-05-14T06:24:10;23.70;50.80
40289;DHT22;28991;52.028;5.526;2023-05-14T06:26:37;23.50;50.70
40289;DHT22;28991;52.028;5.526;2023-05-14T06:29:03;23.70;50.80
40289;DHT22;28991;52.028;5.526;2023-05-14T06:31:28;23.80;50.60
40289;DHT22;28991;52.028;5.526;2023-05-14T06:33:54;23.90;50.40
40289;DHT22;28991;52.028;5.526;2023-05-14T06:36:19;24.10;50.10
40289;DHT22;28991;52.028;5.526;2023-05-14T06:38:45;24.20;50.00
40289;DHT22;28991;52.028;5.526;2023-05-14T06:41:10;24.50;49.90
40289;DHT22;28991;52.028;5.526;2023-05-14T06:43:36;24.30;49.50
40289;DHT22;28991;52.028;5.526;2023-05-14T06:46:02;24.20;49.60
40289;DHT22;28991;52.028;5.526;2023-05-14T06:48:27;24.10;49.60
40289;DHT22;28991;52.028;5.526;2023-05-14T06:50:54;24.00;49.60
40289;DHT22;28991;52.028;5.526;2023-05-14T06:53:19;23.90;49.80
40289;DHT22;28991;52.028;5.526;2023-05-14T06:55:48;23.90;49.80
40289;DHT22;28991;52.028;5.526;2023-05-14T06:58:14;23.90;49.60
40289;DHT22;28991;52.028;5.526;2023-05-14T07:00:39;23.90;49.30
40289;DHT22;28991;52.028;5.526;2023-05-14T07:03:05;24.00;49.10
40289;DHT22;28991;52.028;5.526;2023-05-14T07:05:31;24.20;48.90
40289;DHT22;28991;52.028;5.526;2023-05-14T07:07:56;24.30;48.30
40289;DHT22;28991;52.028;5.526;2023-05-14T07:10:22;24.30;47.90
40289;DHT22;28991;52.028;5.526;2023-05-14T07:12:48;24.30;47.80
40289;DHT22;28991;52.028;5.526;2023-05-14T07:15:13;24.40;47.70
40289;DHT22;28991;52.028;5.526;2023-05-14T07:17:40;24.30;47.60
40289;DHT22;28991;52.028;5.526;2023-05-14T07:20:06;24.30;47.80
40289;DHT22;28991;52.028;5.526;2023-05-14T07:22:32;24.30;47.60
40289;DHT22;28991;52.028;5.526;2023-05-14T07:24:57;24.30;47.50
40289;DHT22;28991;52.028;5.526;2023-05-14T07:27:23;24.30;47.40
40289;DHT22;28991;52.028;5.526;2023-05-14T07:29:49;24.30;47.30
40289;DHT22;28991;52.028;5.526;2023-05-14T07:32:15;24.30;47.40
40289;DHT22;28991;52.028;5.526;2023-05-14T07:34:40;24.30;47.40
40289;DHT22;28991;52.028;5.526;2023-05-14T07:37:06;24.20;47.30
40289;DHT22;28991;52.028;5.526;2023-05-14T07:39:31;24.10;47.40
40289;DHT22;28991;52.028;5.526;2023-05-14T07:41:57;24.00;47.40
40289;DHT22;28991;52.028;5.526;2023-05-14T07:44:23;24.10;47.50
40289;DHT22;28991;52.028;5.526;2023-05-14T07:46:48;24.10;47.40
40289;DHT22;28991;52.028;5.526;2023-05-14T07:49:14;24.20;47.30
40289;DHT22;28991;52.028;5.526;2023-05-14T07:51:39;24.20;47.20
40289;DHT22;28991;52.028;5.526;2023-05-14T07:54:05;24.30;46.80
40289;DHT22;28991;52.028;5.526;2023-05-14T07:56:30;24.40;46.70
40289;DHT22;28991;52.028;5.526;2023-05-14T07:58:56;24.50;46.60
40289;DHT22;28991;52.028;5.526;2023-05-14T08:01:22;24.50;46.50
40289;DHT22;28991;52.028;5.526;2023-05-14T08:03:47;24.50;46.50
40289;DHT22;28991;52.028;5.526;2023-05-14T08:06:13;24.60;46.40
40289;DHT22;28991;52.028;5.526;2023-05-14T08:08:39;24.70;46.20
40289;DHT22;28991;52.028;5.526;2023-05-14T08:11:04;24.70;46.20
40289;DHT22;28991;52.028;5.526;2023-05-14T08:13:30;24.70;46.10
40289;DHT22;28991;52.028;5.526;2023-05-14T08:15:56;24.60;46.00
40289;DHT22;28991;52.028;5.526;2023-05-14T08:18:21;24.60;46.20
40289;DHT22;28991;52.028;5.526;2023-05-14T08:20:47;24.60;46.30
40289;DHT22;28991;52.028;5.526;2023-05-14T08:23:13;24.60;46.30
40289;DHT22;28991;52.028;5.526;2023-05-14T08:25:38;24.60;46.30
40289;DHT22;28991;52.028;5.526;2023-05-14T08:28:04;24.60;46.30
40289;DHT22;28991;52.028;5.526;2023-05-14T08:30:30;24.70;46.30
40289;DHT22;28991;52.028;5.526;2023-05-14T08:32:56;24.70;46.40
40289;DHT22;28991;52.028;5.526;2023-05-14T08:35:22;24.70;46.20
40289;DHT22;28991;52.028;5.526;2023-05-14T08:37:47;24.60;46.20
40289;DHT22;28991;52.028;5.526;2023-05-14T08:40:14;24.60;46.30
40289;DHT22;28991;52.028;5.526;2023-05-14T08:42:40;24.60;46.40
40289;DHT22;28991;52.028;5.526;2023-05-14T08:45:15;25.10;46.50
40289;DHT22;28991;52.028;5.526;2023-05-14T08:47:44;24.60;46.20
40289;DHT22;28991;52.028;5.526;2023-05-14T08:50:11;24.60;46.20
40289;DHT22;28991;52.028;5.526;2023-05-14T08:52:37;24.60;46.30
40289;DHT22;28991;52.028;5.526;2023-05-14T08:55:04;24.60;46.30
40289;DHT22;28991;52.028;5.526;2023-05-14T08:57:31;24.60;46.40
40289;DHT22;28991;52.028;5.526;2023-05-14T08:59:57;24.60;46.40
40289;DHT22;28991;52.028;5.526;2023-05-14T09:02:27;24.50;46.30
40289;DHT22;28991;52.028;5.526;2023-05-14T09:04:57;24.60;46.20
40289;DHT22;28991;52.028;5.526;2023-05-14T09:07:26;24.60;46.30
40289;DHT22;28991;52.028;5.526;2023-05-14T09:09:52;24.50;46.20
40289;DHT22;28991;52.028;5.526;2023-05-14T09:12:19;24.50;46.30
40289;DHT22;28991;52.028;5.526;2023-05-14T09:14:46;24.50;46.30
40289;DHT22;28991;52.028;5.526;2023-05-14T09:17:12;24.40;46.40
40289;DHT22;28991;52.028;5.526;2023-05-14T09:19:39;24.40;46.50
40289;DHT22;28991;52.028;5.526;2023-05-14T09:22:07;24.40;46.50
40289;DHT22;28991;52.028;5.526;2023-05-14T09:24:33;24.40;46.50
40289;DHT22;28991;52.028;5.526;2023-05-14T09:27:00;24.40;46.60
40289;DHT22;28991;52.028;5.526;2023-05-14T09:29:27;24.40;46.70
40289;DHT22;28991;52.028;5.526;2023-05-14T09:31:54;24.30;46.70
40289;DHT22;28991;52.028;5.526;2023-05-14T09:34:25;24.30;46.90
40289;DHT22;28991;52.028;5.526;2023-05-14T09:37:07;24.30;47.00
40289;DHT22;28991;52.028;5.526;2023-05-14T09:39:34;24.30;47.10
40289;DHT22;28991;52.028;5.526;2023-05-14T09:42:00;24.30;47.20
40289;DHT22;28991;52.028;5.526;2023-05-14T09:44:26;24.40;47.40
40289;DHT22;28991;52.028;5.526;2023-05-14T09:46:52;24.20;47.40
40289;DHT22;28991;52.028;5.526;2023-05-14T09:49:18;24.20;47.50
40289;DHT22;28991;52.028;5.526;2023-05-14T09:51:44;24.20;47.60
40289;DHT22;28991;52.028;5.526;2023-05-14T09:54:10;24.20;47.70
40289;DHT22;28991;52.028;5.526;2023-05-14T09:56:36;24.20;47.80
40289;DHT22;28991;52.028;5.526;2023-05-14T09:59:02;24.10;47.90
40289;DHT22;28991;52.028;5.526;2023-05-14T10:01:29;24.10;47.90
40289;DHT22;28991;52.028;5.526;2023-05-14T10:03:56;24.10;48.10
40289;DHT22;28991;52.028;5.526;2023-05-14T10:06:29;24.10;48.20
40289;DHT22;28991;52.028;5.526;2023-05-14T10:08:59;24.10;48.30
40289;DHT22;28991;52.028;5.526;2023-05-14T10:11:30;24.10;48.40
40289;DHT22;28991;52.028;5.526;2023-05-14T10:14:08;24.10;48.60
40289;DHT22;28991;52.028;5.526;2023-05-14T10:16:40;24.10;48.70
40289;DHT22;28991;52.028;5.526;2023-05-14T10:19:10;24.00;48.70
40289;DHT22;28991;52.028;5.526;2023-05-14T10:21:37;24.00;48.90
40289;DHT22;28991;52.028;5.526;2023-05-14T10:24:05;24.00;49.00
40289;DHT22;28991;52.028;5.526;2023-05-14T10:26:33;24.00;49.00
40289;DHT22;28991;52.028;5.526;2023-05-14T10:28:59;24.00;49.10
40289;DHT22;28991;52.028;5.526;2023-05-14T10:31:51;24.00;49.20
40289;DHT22;28991;52.028;5.526;2023-05-14T10:37:15;24.00;49.40
40289;DHT22;28991;52.028;5.526;2023-05-14T10:39:51;23.90;49.40
40289;DHT22;28991;52.028;5.526;2023-05-14T10:44:55;23.90;49.60
40289;DHT22;28991;52.028;5.526;2023-05-14T10:47:24;23.90;49.70
40289;DHT22;28991;52.028;5.526;2023-05-14T10:49:54;23.80;49.70
40289;DHT22;28991;52.028;5.526;2023-05-14T10:52:20;23.90;49.80
40289;DHT22;28991;52.028;5.526;2023-05-14T10:55:05;23.80;49.90
40289;DHT22;28991;52.028;5.526;2023-05-14T10:57:32;23.80;49.90
40289;DHT22;28991;52.028;5.526;2023-05-14T11:00:00;23.80;50.00
40289;DHT22;28991;52.028;5.526;2023-05-14T11:05:02;23.80;50.10
40289;DHT22;28991;52.028;5.526;2023-05-14T11:07:30;23.80;50.20
40289;DHT22;28991;52.028;5.526;2023-05-14T11:10:03;23.80;50.20
40289;DHT22;28991;52.028;5.526;2023-05-14T11:12:29;23.80;50.30
40289;DHT22;28991;52.028;5.526;2023-05-14T11:14:59;23.80;50.30
40289;DHT22;28991;52.028;5.526;2023-05-14T11:17:26;23.70;50.30
40289;DHT22;28991;52.028;5.526;2023-05-14T11:19:51;23.70;50.40
40289;DHT22;28991;52.028;5.526;2023-05-14T11:22:17;23.80;50.50
40289;DHT22;28991;52.028;5.526;2023-05-14T11:24:42;23.80;50.60
40289;DHT22;28991;52.028;5.526;2023-05-14T11:27:09;23.70;50.50
40289;DHT22;28991;52.028;5.526;2023-05-14T11:29:36;23.70;50.60
40289;DHT22;28991;52.028;5.526;2023-05-14T11:32:04;23.70;50.60
40289;DHT22;28991;52.028;5.526;2023-05-14T11:34:30;23.70;50.70
40289;DHT22;28991;52.028;5.526;2023-05-14T11:36:56;23.70;50.70
40289;DHT22;28991;52.028;5.526;2023-05-14T11:39:22;23.60;50.70
40289;DHT22;28991;52.028;5.526;2023-05-14T11:41:47;23.60;50.80
40289;DHT22;28991;52.028;5.526;2023-05-14T11:44:13;23.60;50.80
40289;DHT22;28991;52.028;5.526;2023-05-14T11:46:38;23.60;50.80
40289;DHT22;28991;52.028;5.526;2023-05-14T11:49:04;23.60;50.90
40289;DHT22;28991;52.028;5.526;2023-05-14T11:51:31;23.60;50.90
40289;DHT22;28991;52.028;5.526;2023-05-14T11:53:56;23.60;50.90
40289;DHT22;28991;52.028;5.526;2023-05-14T11:56:24;23.60;50.90
40289;DHT22;28991;52.028;5.526;2023-05-14T11:58:56;23.60;51.00
40289;DHT22;28991;52.028;5.526;2023-05-14T12:01:22;23.60;51.00
40289;DHT22;28991;52.028;5.526;2023-05-14T12:03:49;23.60;51.10
40289;DHT22;28991;52.028;5.526;2023-05-14T12:06:15;23.50;51.00
40289;DHT22;28991;52.028;5.526;2023-05-14T12:08:40;23.60;51.10
40289;DHT22;28991;52.028;5.526;2023-05-14T12:11:07;23.60;51.20
40289;DHT22;28991;52.028;5.526;2023-05-14T12:13:33;23.40;51.10
40289;DHT22;28991;52.028;5.526;2023-05-14T12:16:01;23.50;51.20
40289;DHT22;28991;52.028;5.526;2023-05-14T12:18:29;23.40;51.20
40289;DHT22;28991;52.028;5.526;2023-05-14T12:20:55;23.40;51.30
40289;DHT22;28991;52.028;5.526;2023-05-14T12:23:28;23.40;51.30
40289;DHT22;28991;52.028;5.526;2023-05-14T12:25:54;23.40;51.40
40289;DHT22;28991;52.028;5.526;2023-05-14T12:28:22;23.40;51.50
40289;DHT22;28991;52.028;5.526;2023-05-14T12:30:47;23.40;51.50
40289;DHT22;28991;52.028;5.526;2023-05-14T12:33:13;23.40;51.60
40289;DHT22;28991;52.028;5.526;2023-05-14T12:35:39;23.40;51.60
40289;DHT22;28991;52.028;5.526;2023-05-14T12:38:05;23.30;51.60
40289;DHT22;28991;52.028;5.526;2023-05-14T12:40:31;23.30;51.60
40289;DHT22;28991;52.028;5.526;2023-05-14T12:42:56;23.30;51.70
40289;DHT22;28991;52.028;5.526;2023-05-14T12:45:22;23.30;51.70
40289;DHT22;28991;52.028;5.526;2023-05-14T12:47:47;23.30;51.70
40289;DHT22;28991;52.028;5.526;2023-05-14T12:50:13;23.40;51.80
40289;DHT22;28991;52.028;5.526;2023-05-14T12:52:38;23.30;51.80
40289;DHT22;28991;52.028;5.526;2023-05-14T12:55:05;23.30;51.80
40289;DHT22;28991;52.028;5.526;2023-05-14T12:57:31;23.30;51.90
40289;DHT22;28991;52.028;5.526;2023-05-14T12:59:56;23.30;51.90
40289;DHT22;28991;52.028;5.526;2023-05-14T13:02:22;23.30;51.90
40289;DHT22;28991;52.028;5.526;2023-05-14T13:04:47;23.30;51.90
40289;DHT22;28991;52.028;5.526;2023-05-14T13:07:13;23.30;51.90
40289;DHT22;28991;52.028;5.526;2023-05-14T13:09:39;23.30;51.90
40289;DHT22;28991;52.028;5.526;2023-05-14T13:12:05;23.20;51.90
40289;DHT22;28991;52.028;5.526;2023-05-14T13:14:30;23.30;52.00
40289;DHT22;28991;52.028;5.526;2023-05-14T13:16:56;23.30;52.00
40289;DHT22;28991;52.028;5.526;2023-05-14T13:19:21;23.30;52.00
40289;DHT22;28991;52.028;5.526;2023-05-14T13:21:47;23.30;52.00
40289;DHT22;28991;52.028;5.526;2023-05-14T13:24:12;23.30;52.10
40289;DHT22;28991;52.028;5.526;2023-05-14T13:26:38;23.30;52.10
40289;DHT22;28991;52.028;5.526;2023-05-14T13:29:03;23.20;52.10
40289;DHT22;28991;52.028;5.526;2023-05-14T13:31:29;23.30;52.20
40289;DHT22;28991;52.028;5.526;2023-05-14T13:33:55;23.30;52.20
40289;DHT22;28991;52.028;5.526;2023-05-14T13:36:22;23.20;52.10
40289;DHT22;28991;52.028;5.526;2023-05-14T13:38:48;23.20;52.20
40289;DHT22;28991;52.028;5.526;2023-05-14T13:41:13;23.20;52.20
40289;DHT22;28991;52.028;5.526;2023-05-14T13:43:39;23.20;52.20
40289;DHT22;28991;52.028;5.526;2023-05-14T13:46:05;23.20;52.20
40289;DHT22;28991;52.028;5.526;2023-05-14T13:48:31;23.20;52.20
40289;DHT22;28991;52.028;5.526;2023-05-14T13:50:57;23.30;52.80
40289;DHT22;28991;52.028;5.526;2023-05-14T13:53:24;23.20;52.20
40289;DHT22;28991;52.028;5.526;2023-05-14T13:55:50;23.20;52.20
40289;DHT22;28991;52.028;5.526;2023-05-14T13:58:21;23.20;52.20
40289;DHT22;28991;52.028;5.526;2023-05-14T14:00:48;23.40;52.30
40289;DHT22;28991;52.028;5.526;2023-05-14T14:03:13;23.20;52.30
40289;DHT22;28991;52.028;5.526;2023-05-14T14:05:39;23.20;52.30
40289;DHT22;28991;52.028;5.526;2023-05-14T14:08:04;23.20;52.30
40289;DHT22;28991;52.028;5.526;2023-05-14T14:10:30;23.20;52.30
40289;DHT22;28991;52.028;5.526;2023-05-14T14:12:56;23.20;52.40
40289;DHT22;28991;52.028;5.526;2023-05-14T14:15:21;23.20;52.40
40289;DHT22;28991;52.028;5.526;2023-05-14T14:17:47;23.20;52.40
40289;DHT22;28991;52.028;5.526;2023-05-14T14:20:13;23.20;52.50
40289;DHT22;28991;52.028;5.526;2023-05-14T14:22:39;23.10;52.50
40289;DHT22;28991;52.028;5.526;2023-05-14T14:25:05;23.10;52.50
40289;DHT22;28991;52.028;5.526;2023-05-14T14:27:32;23.10;52.50
40289;DHT22;28991;52.028;5.526;2023-05-14T14:30:06;23.00;52.50
40289;DHT22;28991;52.028;5.526;2023-05-14T14:32:32;23.10;52.60
40289;DHT22;28991;52.028;5.526;2023-05-14T14:34:57;23.10;52.70
40289;DHT22;28991;52.028;5.526;2023-05-14T14:37:23;23.00;52.70
40289;DHT22;28991;52.028;5.526;2023-05-14T14:39:48;23.00;52.80
40289;DHT22;28991;52.028;5.526;2023-05-14T14:42:14;23.00;52.90
40289;DHT22;28991;52.028;5.526;2023-05-14T14:44:40;23.00;53.00
40289;DHT22;28991;52.028;5.526;2023-05-14T14:47:05;22.90;53.00
40289;DHT22;28991;52.028;5.526;2023-05-14T14:49:31;22.90;53.10
40289;DHT22;28991;52.028;5.526;2023-05-14T14:51:57;22.80;53.10
40289;DHT22;28991;52.028;5.526;2023-05-14T14:54:22;22.90;53.20
40289;DHT22;28991;52.028;5.526;2023-05-14T14:56:48;22.80;53.20
40289;DHT22;28991;52.028;5.526;2023-05-14T14:59:16;22.80;53.20
40289;DHT22;28991;52.028;5.526;2023-05-14T15:01:42;22.80;53.30
40289;DHT22;28991;52.028;5.526;2023-05-14T15:04:08;22.90;53.40
40289;DHT22;28991;52.028;5.526;2023-05-14T15:06:33;22.80;53.30
40289;DHT22;28991;52.028;5.526;2023-05-14T15:08:59;22.90;53.40
40289;DHT22;28991;52.028;5.526;2023-05-14T15:11:24;22.80;53.40
40289;DHT22;28991;52.028;5.526;2023-05-14T15:13:50;22.80;53.40
40289;DHT22;28991;52.028;5.526;2023-05-14T15:16:15;23.80;54.50
40289;DHT22;28991;52.028;5.526;2023-05-14T15:18:41;22.80;53.40
40289;DHT22;28991;52.028;5.526;2023-05-14T15:21:07;23.00;53.60
40289;DHT22;28991;52.028;5.526;2023-05-14T15:23:32;22.80;53.50
40289;DHT22;28991;52.028;5.526;2023-05-14T15:25:58;22.80;53.50
40289;DHT22;28991;52.028;5.526;2023-05-14T15:28:23;23.10;53.70
40289;DHT22;28991;52.028;5.526;2023-05-14T15:30:49;22.80;53.60
40289;DHT22;28991;52.028;5.526;2023-05-14T15:33:14;22.80;53.60
40289;DHT22;28991;52.028;5.526;2023-05-14T15:35:44;22.80;53.60
40289;DHT22;28991;52.028;5.526;2023-05-14T15:38:10;22.80;54.20
40289;DHT22;28991;52.028;5.526;2023-05-14T15:40:35;23.20;53.80